createdAt,value
2023-03-28T00:00:03.982Z,0.00
2023-03-28T00:01:04.002Z,0.00
2023-03-28T00:02:04.020Z,0.00
2023-03-28T00:03:04.132Z,0.00
2023-03-28T00:04:04.094Z,0.00
2023-03-28T00:05:04.075Z,0.00
2023-03-28T00:06:04.178Z,0.00
2023-03-28T00:07:04.110Z,0.00
2023-03-28T00:08:04.126Z,0.00
2023-03-28T00:09:04.147Z,0.00
2023-03-28T00:10:04.170Z,0.00
2023-03-28T00:11:04.205Z,0.00
2023-03-28T00:12:04.196Z,0.00
2023-03-28T00:13:04.234Z,0.00
2023-03-28T00:14:04.249Z,0.00
2023-03-28T00:15:04.286Z,0.00
2023-03-28T00:16:04.298Z,0.00
2023-03-28T00:17:04.285Z,0.00
2023-03-28T00:18:04.301Z,0.00
2023-03-28T00:19:04.348Z,0.00
2023-03-28T00:20:04.335Z,0.00
2023-03-28T00:21:04.367Z,0.00
2023-03-28T00:22:04.372Z,0.00
2023-03-28T00:23:04.399Z,0.00
2023-03-28T00:24:04.427Z,0.00
2023-03-28T00:25:04.422Z,0.00
2023-03-28T00:26:04.443Z,0.00
2023-03-28T00:27:04.458Z,0.00
2023-03-28T00:28:04.472Z,0.00
2023-03-28T00:29:04.490Z,0.00
2023-03-28T00:30:04.510Z,0.00
2023-03-28T00:31:04.577Z,0.00
2023-03-28T00:32:04.543Z,0.00
2023-03-28T00:33:04.589Z,0.00
2023-03-28T00:34:04.577Z,0.00
2023-03-28T00:35:04.602Z,0.00
2023-03-28T00:36:04.621Z,0.00
2023-03-28T00:37:04.680Z,0.00
2023-03-28T00:38:04.668Z,0.00
2023-03-28T00:39:04.664Z,0.00
2023-03-28T00:40:04.681Z,0.00
2023-03-28T00:41:04.699Z,0.00
2023-03-28T00:42:04.713Z,0.00
2023-03-28T00:43:04.756Z,0.00
2023-03-28T00:44:04.751Z,0.00
2023-03-28T00:45:04.770Z,0.00
2023-03-28T00:46:09.443Z,0.00
2023-03-28T00:47:04.860Z,0.00
2023-03-28T00:48:04.893Z,0.00
2023-03-28T00:49:04.853Z,0.00
2023-03-28T00:50:04.852Z,0.00
2023-03-28T00:51:04.870Z,0.00
2023-03-28T00:52:04.889Z,0.00
2023-03-28T00:53:04.914Z,0.00
2023-03-28T00:54:04.925Z,0.00
2023-03-28T00:55:04.941Z,0.00
2023-03-28T00:56:04.960Z,0.00
2023-03-28T00:57:05.031Z,0.00
2023-03-28T00:58:05.000Z,0.00
2023-03-28T00:59:05.015Z,0.00
2023-03-28T01:00:05.041Z,0.00
2023-03-28T01:01:05.046Z,0.00
2023-03-28T01:02:05.181Z,0.00
2023-03-28T01:03:05.110Z,0.00
2023-03-28T01:04:05.098Z,0.00
2023-03-28T01:05:05.121Z,0.00
2023-03-28T01:06:05.133Z,0.00
2023-03-28T01:07:05.145Z,0.00
2023-03-28T01:08:05.169Z,0.00
2023-03-28T01:09:05.180Z,0.00
2023-03-28T01:10:05.202Z,0.00
2023-03-28T01:11:05.215Z,0.00
2023-03-28T01:12:05.234Z,0.00
2023-03-28T01:13:05.249Z,0.00
2023-03-28T01:14:05.265Z,0.00
2023-03-28T01:15:05.297Z,0.00
2023-03-28T01:16:05.347Z,0.00
2023-03-28T01:17:05.331Z,0.00
2023-03-28T01:18:05.341Z,0.00
2023-03-28T01:19:05.353Z,0.00
2023-03-28T01:20:05.368Z,0.00
2023-03-28T01:21:05.384Z,0.00
2023-03-28T01:22:05.401Z,0.00
2023-03-28T01:23:05.420Z,0.00
2023-03-28T01:24:11.773Z,0.00
2023-03-28T01:25:05.452Z,0.00
2023-03-28T01:26:05.469Z,0.00
2023-03-28T01:27:05.492Z,0.00
2023-03-28T01:28:05.503Z,0.00
2023-03-28T01:29:05.528Z,0.00
2023-03-28T01:30:05.537Z,0.00
2023-03-28T01:31:05.589Z,0.00
2023-03-28T01:32:05.576Z,0.00
2023-03-28T01:33:05.607Z,0.00
2023-03-28T01:34:05.606Z,0.00
2023-03-28T01:35:05.626Z,0.00
2023-03-28T01:36:05.651Z,0.00
2023-03-28T01:37:05.668Z,0.00
2023-03-28T01:38:05.672Z,0.00
2023-03-28T01:39:05.692Z,0.00
2023-03-28T01:40:05.734Z,0.00
2023-03-28T01:41:05.753Z,0.00
2023-03-28T01:42:05.752Z,0.00
2023-03-28T01:43:05.768Z,0.00
2023-03-28T01:44:05.775Z,0.00
2023-03-28T01:45:05.803Z,0.00
2023-03-28T01:46:05.853Z,0.00
2023-03-28T01:47:05.826Z,0.00
2023-03-28T01:48:05.920Z,0.00
2023-03-28T01:49:05.861Z,0.00
2023-03-28T01:50:05.898Z,0.00
2023-03-28T01:51:05.892Z,0.00
2023-03-28T01:52:05.910Z,0.00
2023-03-28T01:53:05.931Z,0.00
2023-03-28T01:54:05.959Z,0.00
2023-03-28T01:55:05.961Z,0.00
2023-03-28T01:56:05.976Z,0.00
2023-03-28T01:57:06.105Z,0.00
2023-03-28T01:58:06.012Z,0.00
2023-03-28T01:59:06.046Z,0.00
2023-03-28T02:00:06.045Z,0.00
2023-03-28T02:01:06.070Z,0.00
2023-03-28T02:02:06.124Z,0.00
2023-03-28T02:03:06.521Z,0.00
2023-03-28T02:04:06.109Z,0.00
2023-03-28T02:05:06.127Z,0.00
2023-03-28T02:06:06.151Z,0.00
2023-03-28T02:07:06.162Z,0.00
2023-03-28T02:08:06.183Z,0.00
2023-03-28T02:09:06.197Z,0.00
2023-03-28T02:10:06.213Z,0.00
2023-03-28T02:11:06.242Z,0.00
2023-03-28T02:12:06.250Z,0.00
2023-03-28T02:13:06.272Z,0.00
2023-03-28T02:14:06.284Z,0.00
2023-03-28T02:15:06.325Z,0.00
2023-03-28T02:16:06.377Z,0.00
2023-03-28T02:17:06.333Z,0.00
2023-03-28T02:18:06.360Z,0.00
2023-03-28T02:19:06.376Z,0.00
2023-03-28T02:20:06.385Z,0.00
2023-03-28T02:21:06.410Z,0.00
2023-03-28T02:22:06.442Z,0.00
2023-03-28T02:23:06.435Z,0.00
2023-03-28T02:24:06.456Z,0.00
2023-03-28T02:25:06.473Z,0.00
2023-03-28T02:26:06.486Z,0.00
2023-03-28T02:27:06.501Z,0.00
2023-03-28T02:28:06.534Z,0.00
2023-03-28T02:29:06.536Z,0.00
2023-03-28T02:30:06.556Z,0.00
2023-03-28T02:31:06.569Z,0.00
2023-03-28T02:32:06.843Z,0.00
2023-03-28T02:33:06.643Z,0.00
2023-03-28T02:34:06.629Z,0.00
2023-03-28T02:35:06.642Z,0.00
2023-03-28T02:36:06.683Z,0.00
2023-03-28T02:37:06.689Z,0.00
2023-03-28T02:38:06.701Z,0.00
2023-03-28T02:39:06.708Z,0.00
2023-03-28T02:40:06.722Z,0.00
2023-03-28T02:41:06.734Z,0.00
2023-03-28T02:42:06.756Z,0.00
2023-03-28T02:43:06.780Z,0.00
2023-03-28T02:44:06.791Z,0.00
2023-03-28T02:45:06.804Z,0.00
2023-03-28T02:46:06.847Z,0.00
2023-03-28T02:47:06.840Z,0.00
2023-03-28T02:48:06.858Z,0.00
2023-03-28T02:49:06.873Z,0.00
2023-03-28T02:50:06.899Z,0.00
2023-03-28T02:51:06.903Z,0.00
2023-03-28T02:52:06.920Z,0.00
2023-03-28T02:53:06.945Z,0.00
2023-03-28T02:54:07.030Z,0.00
2023-03-28T02:55:06.974Z,0.00
2023-03-28T02:56:06.983Z,0.00
2023-03-28T02:57:07.062Z,0.00
2023-03-28T02:58:07.018Z,0.00
2023-03-28T02:59:07.034Z,0.00
2023-03-28T03:00:07.053Z,0.00
2023-03-28T03:01:07.093Z,0.00
2023-03-28T03:02:07.082Z,0.00
2023-03-28T03:03:07.172Z,0.00
2023-03-28T03:04:07.137Z,0.00
2023-03-28T03:05:07.130Z,0.00
2023-03-28T03:06:07.148Z,0.00
2023-03-28T03:07:07.175Z,0.00
2023-03-28T03:08:07.182Z,0.00
2023-03-28T03:09:07.205Z,0.00
2023-03-28T03:10:07.221Z,0.00
2023-03-28T03:11:07.230Z,0.00
2023-03-28T03:12:07.246Z,0.00
2023-03-28T03:13:07.264Z,0.00
2023-03-28T03:14:07.279Z,0.00
2023-03-28T03:15:07.320Z,0.00
2023-03-28T03:16:07.340Z,0.00
2023-03-28T03:17:07.328Z,0.00
2023-03-28T03:18:07.361Z,0.00
2023-03-28T03:19:07.359Z,0.00
2023-03-28T03:20:07.449Z,0.00
2023-03-28T03:21:07.394Z,0.00
2023-03-28T03:22:07.429Z,0.00
2023-03-28T03:23:07.448Z,0.00
2023-03-28T03:24:07.452Z,0.00
2023-03-28T03:25:07.461Z,0.00
2023-03-28T03:26:07.489Z,0.00
2023-03-28T03:27:07.487Z,0.00
2023-03-28T03:28:07.502Z,0.00
2023-03-28T03:29:07.517Z,0.00
2023-03-28T03:30:07.545Z,0.00
2023-03-28T03:31:07.590Z,0.00
2023-03-28T03:32:07.569Z,0.00
2023-03-28T03:33:07.583Z,0.00
2023-03-28T03:34:07.613Z,0.00
2023-03-28T03:35:07.613Z,0.00
2023-03-28T03:36:07.651Z,0.00
2023-03-28T03:37:07.646Z,0.00
2023-03-28T03:38:07.667Z,0.00
2023-03-28T03:39:07.690Z,0.00
2023-03-28T03:40:07.702Z,0.00
2023-03-28T03:41:07.718Z,0.00
2023-03-28T03:42:07.740Z,0.00
2023-03-28T03:43:07.749Z,0.00
2023-03-28T03:44:07.764Z,0.00
2023-03-28T03:45:07.806Z,0.00
2023-03-28T03:46:07.828Z,0.00
2023-03-28T03:47:07.815Z,0.00
2023-03-28T03:48:07.982Z,0.00
2023-03-28T03:49:07.841Z,0.00
2023-03-28T03:50:07.858Z,0.00
2023-03-28T03:51:07.878Z,0.00
2023-03-28T03:52:07.891Z,0.00
2023-03-28T03:53:07.910Z,0.00
2023-03-28T03:54:07.920Z,0.00
2023-03-28T03:55:07.952Z,0.00
2023-03-28T03:56:07.953Z,0.00
2023-03-28T03:57:07.976Z,0.00
2023-03-28T03:58:08.001Z,0.00
2023-03-28T03:59:08.004Z,0.00
2023-03-28T04:00:08.014Z,0.00
2023-03-28T04:01:08.029Z,0.00
2023-03-28T04:02:08.076Z,0.00
2023-03-28T04:03:08.146Z,0.00
2023-03-28T04:04:08.128Z,0.00
2023-03-28T04:05:08.098Z,0.00
2023-03-28T04:06:08.108Z,0.00
2023-03-28T04:07:08.125Z,0.00
2023-03-28T04:08:08.141Z,0.00
2023-03-28T04:09:08.159Z,0.00
2023-03-28T04:10:08.175Z,0.00
2023-03-28T04:11:08.189Z,0.00
2023-03-28T04:12:08.211Z,0.00
2023-03-28T04:13:08.225Z,0.00
2023-03-28T04:14:08.236Z,0.00
2023-03-28T04:15:08.253Z,0.00
2023-03-28T04:16:08.301Z,0.00
2023-03-28T04:17:08.289Z,0.00
2023-03-28T04:18:09.615Z,0.00
2023-03-28T04:19:08.326Z,0.00
2023-03-28T04:20:08.352Z,0.00
2023-03-28T04:21:08.344Z,0.00
2023-03-28T04:22:08.368Z,0.00
2023-03-28T04:23:08.512Z,0.00
2023-03-28T04:24:08.404Z,0.00
2023-03-28T04:25:08.410Z,0.00
2023-03-28T04:26:08.427Z,0.00
2023-03-28T04:27:08.443Z,0.00
2023-03-28T04:28:08.462Z,0.00
2023-03-28T04:29:08.480Z,0.00
2023-03-28T04:30:08.497Z,0.00
2023-03-28T04:31:08.632Z,0.00
2023-03-28T04:32:08.531Z,0.00
2023-03-28T04:33:08.566Z,0.00
2023-03-28T04:34:08.561Z,0.00
2023-03-28T04:35:08.580Z,0.00
2023-03-28T04:36:08.645Z,0.00
2023-03-28T04:37:08.599Z,0.00
2023-03-28T04:38:08.625Z,0.00
2023-03-28T04:39:08.642Z,0.00
2023-03-28T04:40:08.667Z,0.00
2023-03-28T04:41:08.672Z,0.00
2023-03-28T04:42:08.767Z,0.00
2023-03-28T04:43:08.707Z,0.00
2023-03-28T04:44:08.717Z,0.00
2023-03-28T04:45:08.776Z,0.00
2023-03-28T04:46:08.768Z,0.00
2023-03-28T04:47:08.783Z,0.00
2023-03-28T04:48:08.828Z,0.00
2023-03-28T04:49:08.802Z,0.00
2023-03-28T04:50:08.811Z,0.00
2023-03-28T04:51:08.825Z,0.00
2023-03-28T04:52:08.854Z,0.00
2023-03-28T04:53:08.966Z,0.00
2023-03-28T04:54:08.878Z,0.00
2023-03-28T04:55:08.891Z,0.00
2023-03-28T04:56:08.942Z,0.00
2023-03-28T04:57:09.014Z,0.00
2023-03-28T04:58:08.942Z,0.00
2023-03-28T04:59:08.972Z,0.00
2023-03-28T05:00:08.976Z,0.00
2023-03-28T05:01:09.018Z,0.00
2023-03-28T05:02:09.018Z,0.00
2023-03-28T05:03:10.863Z,0.00
2023-03-28T05:04:09.031Z,0.00
2023-03-28T05:05:09.047Z,0.00
2023-03-28T05:06:09.062Z,5.63
2023-03-28T05:07:09.076Z,5.63
2023-03-28T05:08:09.094Z,5.63
2023-03-28T05:09:09.120Z,5.63
2023-03-28T05:10:09.128Z,5.63
2023-03-28T05:11:09.141Z,5.63
2023-03-28T05:12:09.160Z,5.63
2023-03-28T05:13:09.178Z,11.25
2023-03-28T05:14:09.192Z,11.25
2023-03-28T05:15:09.203Z,11.25
2023-03-28T05:16:09.293Z,11.25
2023-03-28T05:17:09.232Z,11.25
2023-03-28T05:18:09.271Z,11.25
2023-03-28T05:19:09.266Z,16.88
2023-03-28T05:20:09.293Z,16.88
2023-03-28T05:21:09.296Z,16.88
2023-03-28T05:22:09.313Z,16.88
2023-03-28T05:23:09.327Z,16.88
2023-03-28T05:24:09.344Z,22.50
2023-03-28T05:25:09.357Z,22.50
2023-03-28T05:26:09.385Z,22.50
2023-03-28T05:27:09.385Z,28.13
2023-03-28T05:28:09.408Z,28.13
2023-03-28T05:29:09.421Z,28.13
2023-03-28T05:30:09.442Z,28.13
2023-03-28T05:31:09.455Z,33.75
2023-03-28T05:32:09.562Z,33.75
2023-03-28T05:33:09.505Z,33.75
2023-03-28T05:34:09.508Z,39.38
2023-03-28T05:35:09.517Z,39.38
2023-03-28T05:36:09.570Z,39.38
2023-03-28T05:37:09.551Z,45.00
2023-03-28T05:38:09.567Z,45.00
2023-03-28T05:39:09.579Z,50.63
2023-03-28T05:40:09.610Z,50.63
2023-03-28T05:41:09.614Z,50.63
2023-03-28T05:42:09.642Z,50.63
2023-03-28T05:43:09.646Z,56.25
2023-03-28T05:44:09.665Z,56.25
2023-03-28T05:45:09.675Z,61.88
2023-03-28T05:46:09.752Z,61.88
2023-03-28T05:47:09.712Z,61.88
2023-03-28T05:48:09.763Z,67.50
2023-03-28T05:49:09.743Z,67.50
2023-03-28T05:50:09.760Z,67.50
2023-03-28T05:51:09.774Z,73.13
2023-03-28T05:52:09.794Z,73.13
2023-03-28T05:53:09.807Z,73.13
2023-03-28T05:54:09.821Z,78.75
2023-03-28T05:55:09.838Z,78.75
2023-03-28T05:56:09.857Z,78.75
2023-03-28T05:57:09.890Z,84.38
2023-03-28T05:58:09.886Z,84.38
2023-03-28T05:59:09.904Z,90.00
2023-03-28T06:00:09.918Z,90.00
2023-03-28T06:01:09.951Z,90.00
2023-03-28T06:02:09.951Z,95.63
2023-03-28T06:03:16.276Z,101.25
2023-03-28T06:04:10.022Z,112.50
2023-03-28T06:05:10.035Z,112.50
2023-03-28T06:06:10.022Z,112.50
2023-03-28T06:07:10.031Z,112.50
2023-03-28T06:08:10.059Z,118.13
2023-03-28T06:09:10.062Z,129.38
2023-03-28T06:10:10.081Z,135.00
2023-03-28T06:11:10.097Z,135.00
2023-03-28T06:12:10.119Z,135.00
2023-03-28T06:13:10.134Z,140.63
2023-03-28T06:14:10.149Z,146.25
2023-03-28T06:15:10.162Z,157.50
2023-03-28T06:16:10.175Z,180.00
2023-03-28T06:17:10.210Z,196.88
2023-03-28T06:18:10.272Z,191.25
2023-03-28T06:19:17.710Z,196.88
2023-03-28T06:20:10.300Z,185.63
2023-03-28T06:21:10.267Z,196.88
2023-03-28T06:22:10.280Z,213.75
2023-03-28T06:23:10.298Z,236.25
2023-03-28T06:24:10.318Z,258.75
2023-03-28T06:25:10.339Z,270.00
2023-03-28T06:26:10.347Z,292.50
2023-03-28T06:27:10.369Z,309.38
2023-03-28T06:28:10.384Z,326.25
2023-03-28T06:29:10.412Z,331.88
2023-03-28T06:30:10.427Z,309.38
2023-03-28T06:31:10.483Z,303.75
2023-03-28T06:32:10.465Z,326.25
2023-03-28T06:33:10.478Z,320.63
2023-03-28T06:34:10.494Z,326.25
2023-03-28T06:35:10.520Z,326.25
2023-03-28T06:36:10.562Z,326.25
2023-03-28T06:37:10.561Z,331.88
2023-03-28T06:38:10.626Z,331.88
2023-03-28T06:39:10.589Z,331.88
2023-03-28T06:40:10.616Z,337.50
2023-03-28T06:41:10.623Z,337.50
2023-03-28T06:42:10.652Z,326.25
2023-03-28T06:43:10.666Z,286.88
2023-03-28T06:44:10.682Z,213.75
2023-03-28T06:45:10.705Z,157.50
2023-03-28T06:46:10.742Z,146.25
2023-03-28T06:47:10.742Z,146.25
2023-03-28T06:48:10.819Z,140.63
2023-03-28T06:49:10.777Z,140.63
2023-03-28T06:50:10.802Z,140.63
2023-03-28T06:51:10.820Z,140.63
2023-03-28T06:52:10.838Z,140.63
2023-03-28T06:53:10.856Z,140.63
2023-03-28T06:54:10.883Z,140.63
2023-03-28T06:55:10.898Z,140.63
2023-03-28T06:56:10.909Z,140.63
2023-03-28T06:57:10.954Z,146.25
2023-03-28T06:58:10.953Z,140.63
2023-03-28T06:59:10.977Z,140.63
2023-03-28T07:00:10.990Z,140.63
2023-03-28T07:01:11.021Z,140.63
2023-03-28T07:02:11.032Z,140.63
2023-03-28T07:03:11.060Z,140.63
2023-03-28T07:04:11.069Z,140.63
2023-03-28T07:05:11.082Z,140.63
2023-03-28T07:06:11.120Z,140.63
2023-03-28T07:07:11.123Z,140.63
2023-03-28T07:08:11.151Z,140.63
2023-03-28T07:09:11.165Z,140.63
2023-03-28T07:10:11.195Z,140.63
2023-03-28T07:11:11.202Z,140.63
2023-03-28T07:12:11.215Z,140.63
2023-03-28T07:13:11.236Z,140.63
2023-03-28T07:14:11.251Z,140.63
2023-03-28T07:15:11.275Z,140.63
2023-03-28T07:16:11.303Z,140.63
2023-03-28T07:17:11.309Z,140.63
2023-03-28T07:18:11.329Z,140.63
2023-03-28T07:19:11.379Z,140.63
2023-03-28T07:20:11.370Z,140.63
2023-03-28T07:21:11.393Z,140.63
2023-03-28T07:22:11.403Z,146.25
2023-03-28T07:23:11.422Z,146.25
2023-03-28T07:24:11.443Z,146.25
2023-03-28T07:25:11.461Z,146.25
2023-03-28T07:26:11.491Z,146.25
2023-03-28T07:27:15.482Z,146.25
2023-03-28T07:28:11.513Z,146.25
2023-03-28T07:29:11.538Z,146.25
2023-03-28T07:30:11.559Z,146.25
2023-03-28T07:31:11.613Z,151.88
2023-03-28T07:32:11.596Z,151.88
2023-03-28T07:33:17.141Z,151.88
2023-03-28T07:34:11.643Z,151.88
2023-03-28T07:35:11.656Z,151.88
2023-03-28T07:36:11.720Z,151.88
2023-03-28T07:37:11.682Z,151.88
2023-03-28T07:38:11.701Z,151.88
2023-03-28T07:39:11.718Z,151.88
2023-03-28T07:40:11.759Z,151.88
2023-03-28T07:41:11.757Z,157.50
2023-03-28T07:42:11.782Z,157.50
2023-03-28T07:43:11.796Z,151.88
2023-03-28T07:44:11.815Z,151.88
2023-03-28T07:45:11.842Z,151.88
2023-03-28T07:46:11.851Z,157.50
2023-03-28T07:47:11.869Z,157.50
2023-03-28T07:48:11.951Z,151.88
2023-03-28T07:49:11.903Z,146.25
2023-03-28T07:50:11.923Z,146.25
2023-03-28T07:51:11.949Z,151.88
2023-03-28T07:52:11.966Z,151.88
2023-03-28T07:53:11.983Z,157.50
2023-03-28T07:54:11.999Z,151.88
2023-03-28T07:55:12.017Z,146.25
2023-03-28T07:56:12.261Z,146.25
2023-03-28T07:57:12.095Z,151.88
2023-03-28T07:58:12.090Z,151.88
2023-03-28T07:59:12.095Z,151.88
2023-03-28T08:00:12.105Z,151.88
2023-03-28T08:01:12.188Z,157.50
2023-03-28T08:02:12.158Z,151.88
2023-03-28T08:03:12.233Z,157.50
2023-03-28T08:04:12.242Z,168.75
2023-03-28T08:05:12.235Z,168.75
2023-03-28T08:06:28.743Z,168.75
2023-03-28T08:07:12.248Z,163.13
2023-03-28T08:08:12.264Z,163.13
2023-03-28T08:09:12.281Z,157.50
2023-03-28T08:10:12.305Z,157.50
2023-03-28T08:11:12.325Z,157.50
2023-03-28T08:12:12.337Z,157.50
2023-03-28T08:13:12.358Z,157.50
2023-03-28T08:14:12.405Z,151.88
2023-03-28T08:15:12.397Z,157.50
2023-03-28T08:16:12.483Z,151.88
2023-03-28T08:17:12.444Z,151.88
2023-03-28T08:18:12.457Z,157.50
2023-03-28T08:19:13.295Z,157.50
2023-03-28T08:20:12.499Z,157.50
2023-03-28T08:21:12.506Z,157.50
2023-03-28T08:22:12.559Z,157.50
2023-03-28T08:23:12.547Z,157.50
2023-03-28T08:24:19.647Z,157.50
2023-03-28T08:25:12.592Z,157.50
2023-03-28T08:26:12.607Z,157.50
2023-03-28T08:27:12.639Z,157.50
2023-03-28T08:28:12.641Z,157.50
2023-03-28T08:29:12.667Z,157.50
2023-03-28T08:30:12.703Z,157.50
2023-03-28T08:31:12.736Z,151.88
2023-03-28T08:32:12.721Z,151.88
2023-03-28T08:33:12.802Z,151.88
2023-03-28T08:34:12.756Z,151.88
2023-03-28T08:35:12.781Z,151.88
2023-03-28T08:36:12.832Z,151.88
2023-03-28T08:37:12.819Z,151.88
2023-03-28T08:38:12.835Z,157.50
2023-03-28T08:39:12.859Z,191.25
2023-03-28T08:40:12.871Z,230.63
2023-03-28T08:41:12.889Z,225.00
2023-03-28T08:42:12.913Z,213.75
2023-03-28T08:43:12.941Z,185.63
2023-03-28T08:44:12.950Z,168.75
2023-03-28T08:45:12.978Z,163.13
2023-03-28T08:46:13.009Z,163.13
2023-03-28T08:47:13.010Z,163.13
2023-03-28T08:48:13.065Z,163.13
2023-03-28T08:49:13.051Z,180.00
2023-03-28T08:50:13.530Z,219.38
2023-03-28T08:51:13.091Z,213.75
2023-03-28T08:52:13.124Z,208.13
2023-03-28T08:53:13.133Z,236.25
2023-03-28T08:54:13.153Z,258.75
2023-03-28T08:55:13.167Z,236.25
2023-03-28T08:56:13.188Z,213.75
2023-03-28T08:57:13.262Z,208.13
2023-03-28T08:58:13.226Z,202.50
2023-03-28T08:59:13.253Z,202.50
2023-03-28T09:00:13.279Z,219.38
2023-03-28T09:01:13.295Z,275.63
2023-03-28T09:02:13.326Z,292.50
2023-03-28T09:03:13.408Z,309.38
2023-03-28T09:04:13.442Z,309.38
2023-03-28T09:05:23.140Z,303.75
2023-03-28T09:06:13.389Z,303.75
2023-03-28T09:07:13.410Z,281.25
2023-03-28T09:08:13.426Z,264.38
2023-03-28T09:09:13.455Z,275.63
2023-03-28T09:10:13.475Z,286.88
2023-03-28T09:11:13.497Z,270.00
2023-03-28T09:12:13.511Z,275.63
2023-03-28T09:13:13.533Z,298.13
2023-03-28T09:14:13.570Z,320.63
2023-03-28T09:15:13.572Z,354.38
2023-03-28T09:16:13.640Z,382.50
2023-03-28T09:17:13.613Z,371.25
2023-03-28T09:18:13.858Z,343.13
2023-03-28T09:19:13.665Z,365.63
2023-03-28T09:20:13.696Z,421.88
2023-03-28T09:21:13.702Z,405.00
2023-03-28T09:22:15.873Z,393.75
2023-03-28T09:23:13.741Z,427.50
2023-03-28T09:24:13.763Z,461.25
2023-03-28T09:25:13.779Z,416.25
2023-03-28T09:26:13.805Z,421.88
2023-03-28T09:27:13.822Z,489.38
2023-03-28T09:28:13.841Z,517.50
2023-03-28T09:29:13.864Z,528.75
2023-03-28T09:30:13.886Z,551.25
2023-03-28T09:31:13.950Z,528.75
2023-03-28T09:32:14.011Z,523.13
2023-03-28T09:33:13.953Z,511.88
2023-03-28T09:34:13.974Z,500.63
2023-03-28T09:35:13.999Z,506.25
2023-03-28T09:36:14.037Z,500.63
2023-03-28T09:37:14.037Z,472.50
2023-03-28T09:38:14.062Z,472.50
2023-03-28T09:39:14.093Z,421.88
2023-03-28T09:40:14.108Z,376.88
2023-03-28T09:41:14.129Z,343.13
2023-03-28T09:42:14.146Z,348.75
2023-03-28T09:43:14.173Z,360.00
2023-03-28T09:44:14.200Z,371.25
2023-03-28T09:45:14.213Z,399.38
2023-03-28T09:46:14.259Z,427.50
2023-03-28T09:47:14.257Z,433.13
2023-03-28T09:48:14.386Z,450.00
2023-03-28T09:49:14.300Z,438.75
2023-03-28T09:50:14.372Z,421.88
2023-03-28T09:51:14.355Z,427.50
2023-03-28T09:52:14.368Z,444.38
2023-03-28T09:53:14.390Z,438.75
2023-03-28T09:54:14.411Z,444.38
2023-03-28T09:55:14.443Z,427.50
2023-03-28T09:56:14.471Z,405.00
2023-03-28T09:57:14.529Z,388.13
2023-03-28T09:58:14.505Z,365.63
2023-03-28T09:59:14.533Z,348.75
2023-03-28T10:00:14.552Z,331.88
2023-03-28T10:01:14.602Z,343.13
2023-03-28T10:02:14.685Z,343.13
2023-03-28T10:03:14.613Z,348.75
2023-03-28T10:04:14.693Z,360.00
2023-03-28T10:05:14.656Z,376.88
2023-03-28T10:06:14.682Z,393.75
2023-03-28T10:07:14.706Z,427.50
2023-03-28T10:08:14.724Z,450.00
2023-03-28T10:09:14.757Z,478.13
2023-03-28T10:10:14.767Z,472.50
2023-03-28T10:11:14.789Z,466.88
2023-03-28T10:12:14.812Z,483.75
2023-03-28T10:13:14.847Z,500.63
2023-03-28T10:14:14.858Z,511.88
2023-03-28T10:15:14.883Z,500.63
2023-03-28T10:16:14.928Z,472.50
2023-03-28T10:17:14.924Z,489.38
2023-03-28T10:18:15.013Z,478.13
2023-03-28T10:19:14.965Z,450.00
2023-03-28T10:20:14.992Z,410.63
2023-03-28T10:21:15.011Z,360.00
2023-03-28T10:22:15.031Z,331.88
2023-03-28T10:23:15.058Z,298.13
2023-03-28T10:24:15.078Z,286.88
2023-03-28T10:25:15.102Z,286.88
2023-03-28T10:26:15.126Z,303.75
2023-03-28T10:27:15.143Z,337.50
2023-03-28T10:28:15.170Z,331.88
2023-03-28T10:29:15.188Z,343.13
2023-03-28T10:30:15.318Z,354.38
2023-03-28T10:31:15.307Z,365.63
2023-03-28T10:32:15.259Z,376.88
2023-03-28T10:33:15.282Z,388.13
2023-03-28T10:34:15.301Z,388.13
2023-03-28T10:35:15.322Z,371.25
2023-03-28T10:36:15.360Z,382.50
2023-03-28T10:37:15.371Z,360.00
2023-03-28T10:38:15.388Z,315.00
2023-03-28T10:39:15.412Z,315.00
2023-03-28T10:40:15.497Z,331.88
2023-03-28T10:41:15.454Z,354.38
2023-03-28T10:42:15.486Z,365.63
2023-03-28T10:43:15.513Z,382.50
2023-03-28T10:44:15.523Z,410.63
2023-03-28T10:45:15.545Z,410.63
2023-03-28T10:46:15.639Z,416.25
2023-03-28T10:47:15.590Z,421.88
2023-03-28T10:48:15.620Z,438.75
2023-03-28T10:49:15.668Z,466.88
2023-03-28T10:50:15.659Z,472.50
2023-03-28T10:51:15.679Z,472.50
2023-03-28T10:52:15.710Z,472.50
2023-03-28T10:53:15.722Z,483.75
2023-03-28T10:54:15.766Z,495.00
2023-03-28T10:55:15.783Z,523.13
2023-03-28T10:56:15.800Z,534.38
2023-03-28T10:57:15.859Z,528.75
2023-03-28T10:58:15.834Z,528.75
2023-03-28T10:59:15.859Z,534.38
2023-03-28T11:00:15.882Z,540.00
2023-03-28T11:01:15.898Z,545.63
2023-03-28T11:02:16.014Z,556.88
2023-03-28T11:03:16.055Z,573.75
2023-03-28T11:04:15.983Z,562.50
2023-03-28T11:05:15.993Z,478.13
2023-03-28T11:06:16.021Z,382.50
2023-03-28T11:07:16.041Z,337.50
2023-03-28T11:08:16.061Z,348.75
2023-03-28T11:09:16.088Z,331.88
2023-03-28T11:10:16.120Z,337.50
2023-03-28T11:11:16.130Z,326.25
2023-03-28T11:12:26.488Z,309.38
2023-03-28T11:13:16.176Z,320.63
2023-03-28T11:14:16.206Z,315.00
2023-03-28T11:15:16.224Z,303.75
2023-03-28T11:16:16.305Z,326.25
2023-03-28T11:17:16.267Z,326.25
2023-03-28T11:18:16.291Z,354.38
2023-03-28T11:19:16.312Z,365.63
2023-03-28T11:20:16.349Z,405.00
2023-03-28T11:21:16.356Z,438.75
2023-03-28T11:22:16.382Z,472.50
2023-03-28T11:23:16.419Z,528.75
2023-03-28T11:24:16.442Z,562.50
2023-03-28T11:25:16.459Z,534.38
2023-03-28T11:26:16.477Z,540.00
2023-03-28T11:27:16.719Z,573.75
2023-03-28T11:28:16.520Z,551.25
2023-03-28T11:29:16.659Z,466.88
2023-03-28T11:30:16.638Z,393.75
2023-03-28T11:31:16.589Z,360.00
2023-03-28T11:32:16.618Z,360.00
2023-03-28T11:33:16.645Z,371.25
2023-03-28T11:34:16.661Z,382.50
2023-03-28T11:35:16.685Z,388.13
2023-03-28T11:36:16.713Z,399.38
2023-03-28T11:37:16.724Z,399.38
2023-03-28T11:38:16.750Z,399.38
2023-03-28T11:39:16.783Z,416.25
2023-03-28T11:40:16.793Z,450.00
2023-03-28T11:41:16.820Z,478.13
2023-03-28T11:42:16.844Z,506.25
2023-03-28T11:43:16.862Z,517.50
2023-03-28T11:44:16.886Z,500.63
2023-03-28T11:45:16.909Z,483.75
2023-03-28T11:46:16.951Z,455.63
2023-03-28T11:47:16.989Z,444.38
2023-03-28T11:48:16.978Z,421.88
2023-03-28T11:49:17.016Z,405.00
2023-03-28T11:50:17.042Z,376.88
2023-03-28T11:51:17.050Z,388.13
2023-03-28T11:52:17.071Z,382.50
2023-03-28T11:53:17.094Z,376.88
2023-03-28T11:54:17.118Z,376.88
2023-03-28T11:55:17.142Z,382.50
2023-03-28T11:56:17.168Z,421.88
2023-03-28T11:57:17.229Z,433.13
2023-03-28T11:58:17.218Z,405.00
2023-03-28T11:59:17.250Z,382.50
2023-03-28T12:00:26.805Z,393.75
2023-03-28T12:01:17.316Z,376.88
2023-03-28T12:02:17.357Z,388.13
2023-03-28T12:03:17.418Z,393.75
2023-03-28T12:04:17.383Z,382.50
2023-03-28T12:05:17.374Z,410.63
2023-03-28T12:06:17.394Z,427.50
2023-03-28T12:07:17.441Z,433.13
2023-03-28T12:08:17.441Z,461.25
2023-03-28T12:09:17.463Z,466.88
2023-03-28T12:10:17.490Z,478.13
2023-03-28T12:11:17.512Z,489.38
2023-03-28T12:12:17.534Z,489.38
2023-03-28T12:13:17.568Z,450.00
2023-03-28T12:14:17.700Z,410.63
2023-03-28T12:15:17.601Z,376.88
2023-03-28T12:16:17.740Z,365.63
2023-03-28T12:17:17.652Z,360.00
2023-03-28T12:18:17.682Z,371.25
2023-03-28T12:19:17.696Z,365.63
2023-03-28T12:20:18.331Z,354.38
2023-03-28T12:21:17.746Z,354.38
2023-03-28T12:22:17.772Z,371.25
2023-03-28T12:23:17.794Z,376.88
2023-03-28T12:24:17.815Z,405.00
2023-03-28T12:25:17.845Z,416.25
2023-03-28T12:26:17.865Z,427.50
2023-03-28T12:27:17.888Z,427.50
2023-03-28T12:28:17.909Z,433.13
2023-03-28T12:29:17.966Z,438.75
2023-03-28T12:30:17.960Z,438.75
2023-03-28T12:31:18.091Z,416.25
2023-03-28T12:32:18.020Z,399.38
2023-03-28T12:33:18.037Z,405.00
2023-03-28T12:34:18.052Z,405.00
2023-03-28T12:35:18.102Z,410.63
2023-03-28T12:36:18.138Z,421.88
2023-03-28T12:37:18.128Z,427.50
2023-03-28T12:38:18.150Z,450.00
2023-03-28T12:39:18.178Z,455.63
2023-03-28T12:40:18.195Z,450.00
2023-03-28T12:41:18.222Z,438.75
2023-03-28T12:42:18.244Z,433.13
2023-03-28T12:43:18.269Z,438.75
2023-03-28T12:44:19.283Z,421.88
2023-03-28T12:45:18.309Z,410.63
2023-03-28T12:46:18.556Z,405.00
2023-03-28T12:47:18.371Z,388.13
2023-03-28T12:48:18.386Z,421.88
2023-03-28T12:49:18.409Z,416.25